sensor_id;sensor_type;location;lat;lon;timestamp;pressure;altitude;pressure_sealevel;temperature
18161;BMP280;9205;52.032;4.314;2024-03-02T00:00:51;99643.97;;;8.08
18161;BMP280;9205;52.032;4.314;2024-03-02T00:03:19;99647.34;;;8.07
18161;BMP280;9205;52.032;4.314;2024-03-02T00:05:50;99660.00;;;8.07
18161;BMP280;9205;52.032;4.314;2024-03-02T00:08:24;99654.06;;;8.08
18161;BMP280;9205;52.032;4.314;2024-03-02T00:10:57;99653.53;;;7.97
18161;BMP280;9205;52.032;4.314;2024-03-02T00:13:24;99659.28;;;8.02
18161;BMP280;9205;52.032;4.314;2024-03-02T00:15:54;99666.88;;;8.02
18161;BMP280;9205;52.032;4.314;2024-03-02T00:18:26;99680.31;;;8.04
18161;BMP280;9205;52.032;4.314;2024-03-02T00:20:55;99680.31;;;8.04
18161;BMP280;9205;52.032;4.314;2024-03-02T00:23:27;99685.28;;;8.07
18161;BMP280;9205;52.032;4.314;2024-03-02T00:25:56;99669.25;;;8.08
18161;BMP280;9205;52.032;4.314;2024-03-02T00:28:25;99670.75;;;8.13
18161;BMP280;9205;52.032;4.314;2024-03-02T00:31:03;99672.66;;;8.07
18161;BMP280;9205;52.032;4.314;2024-03-02T00:33:33;99671.06;;;8.03
18161;BMP280;9205;52.032;4.314;2024-03-02T00:36:02;99675.81;;;8.15
18161;BMP280;9205;52.032;4.314;2024-03-02T00:38:32;99666.53;;;8.14
18161;BMP280;9205;52.032;4.314;2024-03-02T00:41:04;99669.06;;;8.14
18161;BMP280;9205;52.032;4.314;2024-03-02T00:43:57;99680.91;;;8.12
18161;BMP280;9205;52.032;4.314;2024-03-02T00:46:25;99677.59;;;8.10
18161;BMP280;9205;52.032;4.314;2024-03-02T00:48:55;99676.97;;;8.03
18161;BMP280;9205;52.032;4.314;2024-03-02T00:51:24;99680.91;;;8.12
18161;BMP280;9205;52.032;4.314;2024-03-02T00:53:55;99674.31;;;8.08
18161;BMP280;9205;52.032;4.314;2024-03-02T00:56:24;99666.72;;;8.08
18161;BMP280;9205;52.032;4.314;2024-03-02T00:58:52;99659.13;;;8.08
18161;BMP280;9205;52.032;4.314;2024-03-02T01:01:20;99669.41;;;8.02
18161;BMP280;9205;52.032;4.314;2024-03-02T01:03:47;99664.19;;;8.08
18161;BMP280;9205;52.032;4.314;2024-03-02T01:06:15;99670.81;;;8.12
18161;BMP280;9205;52.032;4.314;2024-03-02T01:08:44;99674.19;;;8.11
18161;BMP280;9205;52.032;4.314;2024-03-02T01:11:13;99657.56;;;8.04
18161;BMP280;9205;52.032;4.314;2024-03-02T01:13:40;99641.38;;;8.09
18161;BMP280;9205;52.032;4.314;2024-03-02T01:16:08;99651.56;;;8.06
18161;BMP280;9205;52.032;4.314;2024-03-02T01:18:35;99667.72;;;8.02
18161;BMP280;9205;52.032;4.314;2024-03-02T01:21:03;99667.03;;;7.97
18161;BMP280;9205;52.032;4.314;2024-03-02T01:23:31;99684.94;;;7.90
18161;BMP280;9205;52.032;4.314;2024-03-02T01:25:58;99683.22;;;7.92
18161;BMP280;9205;52.032;4.314;2024-03-02T01:28:26;99685.69;;;7.93
18161;BMP280;9205;52.032;4.314;2024-03-02T01:30:54;99686.94;;;7.79
18161;BMP280;9205;52.032;4.314;2024-03-02T01:33:21;99689.91;;;7.93
18161;BMP280;9205;52.032;4.314;2024-03-02T01:35:49;99698.41;;;7.90
18161;BMP280;9205;52.032;4.314;2024-03-02T01:38:16;99702.81;;;7.84
18161;BMP280;9205;52.032;4.314;2024-03-02T01:40:44;99699.63;;;7.77
18161;BMP280;9205;52.032;4.314;2024-03-02T01:43:12;99691.84;;;7.85
18161;BMP280;9205;52.032;4.314;2024-03-02T01:45:40;99693.44;;;7.87
18161;BMP280;9205;52.032;4.314;2024-03-02T01:48:08;99700.19;;;7.87
18161;BMP280;9205;52.032;4.314;2024-03-02T01:50:36;99691.91;;;7.82
18161;BMP280;9205;52.032;4.314;2024-03-02T01:53:04;99703.50;;;7.89
18161;BMP280;9205;52.032;4.314;2024-03-02T01:55:31;99705.13;;;7.91
18161;BMP280;9205;52.032;4.314;2024-03-02T01:58:01;99709.53;;;7.85
18161;BMP280;9205;52.032;4.314;2024-03-02T02:00:28;99709.44;;;7.88
18161;BMP280;9205;52.032;4.314;2024-03-02T02:02:59;99705.13;;;7.91
18161;BMP280;9205;52.032;4.314;2024-03-02T02:05:27;99705.03;;;7.94
18161;BMP280;9205;52.032;4.314;2024-03-02T02:07:55;99698.19;;;7.98
18161;BMP280;9205;52.032;4.314;2024-03-02T02:10:24;99693.94;;;7.98
18161;BMP280;9205;52.032;4.314;2024-03-02T02:12:51;99704.78;;;8.03
18161;BMP280;9205;52.032;4.314;2024-03-02T02:15:27;99701.34;;;8.06
18161;BMP280;9205;52.032;4.314;2024-03-02T02:17:55;99700.53;;;8.05
18161;BMP280;9205;52.032;4.314;2024-03-02T02:20:25;99715.94;;;7.96
18161;BMP280;9205;52.032;4.314;2024-03-02T02:23:00;99700.66;;;8.01
18161;BMP280;9205;52.032;4.314;2024-03-02T02:25:29;99697.88;;;8.08
18161;BMP280;9205;52.032;4.314;2024-03-02T02:27:57;99703.00;;;8.07
18161;BMP280;9205;52.032;4.314;2024-03-02T02:30:27;99705.72;;;8.01
18161;BMP280;9205;52.032;4.314;2024-03-02T02:32:55;99712.56;;;7.96
18161;BMP280;9205;52.032;4.314;2024-03-02T02:35:23;99726.69;;;8.04
18161;BMP280;9205;52.032;4.314;2024-03-02T02:37:52;99713.91;;;8.09
18161;BMP280;9205;52.032;4.314;2024-03-02T02:40:22;99708.13;;;8.04
18161;BMP280;9205;52.032;4.314;2024-03-02T02:42:49;99720.03;;;8.00
18161;BMP280;9205;52.032;4.314;2024-03-02T02:45:18;99716.69;;;8.00
18161;BMP280;9205;52.032;4.314;2024-03-02T02:47:44;99720.75;;;8.05
18161;BMP280;9205;52.032;4.314;2024-03-02T02:50:12;99702.25;;;8.03
18161;BMP280;9205;52.032;4.314;2024-03-02T02:52:41;99703.00;;;8.07
18161;BMP280;9205;52.032;4.314;2024-03-02T02:55:11;99705.59;;;8.04
18161;BMP280;9205;52.032;4.314;2024-03-02T02:57:41;99718.47;;;7.96
18161;BMP280;9205;52.032;4.314;2024-03-02T03:00:12;99717.75;;;7.93
18161;BMP280;9205;52.032;4.314;2024-03-02T03:02:42;99714.34;;;7.94
18161;BMP280;9205;52.032;4.314;2024-03-02T03:05:11;99716.03;;;7.93
18161;BMP280;9205;52.032;4.314;2024-03-02T03:07:40;99715.91;;;7.98
18161;BMP280;9205;52.032;4.314;2024-03-02T03:10:08;99719.28;;;7.97
18161;BMP280;9205;52.032;4.314;2024-03-02T03:12:36;99715.09;;;7.96
18161;BMP280;9205;52.032;4.314;2024-03-02T03:15:06;99715.09;;;7.96
18161;BMP280;9205;52.032;4.314;2024-03-02T03:17:34;99721.75;;;8.00
18161;BMP280;9205;52.032;4.314;2024-03-02T03:20:03;99707.25;;;8.05
18161;BMP280;9205;52.032;4.314;2024-03-02T03:22:31;99722.50;;;8.02
18161;BMP280;9205;52.032;4.314;2024-03-02T03:24:59;99728.28;;;8.07
18161;BMP280;9205;52.032;4.314;2024-03-02T03:27:26;99719.78;;;8.09
18161;BMP280;9205;52.032;4.314;2024-03-02T03:29:52;99724.78;;;8.11
18161;BMP280;9205;52.032;4.314;2024-03-02T03:32:21;99725.53;;;8.14
18161;BMP280;9205;52.032;4.314;2024-03-02T03:34:49;99725.41;;;8.20
18161;BMP280;9205;52.032;4.314;2024-03-02T03:37:16;99727.81;;;8.25
18161;BMP280;9205;52.032;4.314;2024-03-02T03:39:43;99723.50;;;8.27
18161;BMP280;9205;52.032;4.314;2024-03-02T03:42:10;99731.94;;;8.27
18161;BMP280;9205;52.032;4.314;2024-03-02T03:44:38;99726.88;;;8.27
18161;BMP280;9205;52.032;4.314;2024-03-02T03:47:07;99724.34;;;8.27
18161;BMP280;9205;52.032;4.314;2024-03-02T03:49:36;99726.00;;;8.28
18161;BMP280;9205;52.032;4.314;2024-03-02T03:52:04;99732.06;;;8.23
18161;BMP280;9205;52.032;4.314;2024-03-02T03:54:31;99724.72;;;8.14
18161;BMP280;9205;52.032;4.314;2024-03-02T03:56:59;99720.47;;;8.14
18161;BMP280;9205;52.032;4.314;2024-03-02T03:59:26;99732.94;;;8.22
18161;BMP280;9205;52.032;4.314;2024-03-02T04:01:53;99743.22;;;8.14
18161;BMP280;9205;52.032;4.314;2024-03-02T04:04:20;99739.88;;;8.14
18161;BMP280;9205;52.032;4.314;2024-03-02T04:06:49;99732.16;;;8.20
18161;BMP280;9205;52.032;4.314;2024-03-02T04:09:17;99739.69;;;8.21
18161;BMP280;9205;52.032;4.314;2024-03-02T04:11:44;99735.41;;;8.25
18161;BMP280;9205;52.032;4.314;2024-03-02T04:14:12;99739.88;;;8.14
18161;BMP280;9205;52.032;4.314;2024-03-02T04:16:39;99743.25;;;8.16
18161;BMP280;9205;52.032;4.314;2024-03-02T04:19:06;99749.97;;;8.15
18161;BMP280;9205;52.032;4.314;2024-03-02T04:21:33;99749.81;;;8.21
18161;BMP280;9205;52.032;4.314;2024-03-02T04:24:02;99739.84;;;8.17
18161;BMP280;9205;52.032;4.314;2024-03-02T04:26:30;99744.91;;;8.15
18161;BMP280;9205;52.032;4.314;2024-03-02T04:28:57;99752.44;;;8.18
18161;BMP280;9205;52.032;4.314;2024-03-02T04:31:24;99745.72;;;8.17
18161;BMP280;9205;52.032;4.314;2024-03-02T04:33:51;99749.13;;;8.16
18161;BMP280;9205;52.032;4.314;2024-03-02T04:36:20;99751.59;;;8.18
18161;BMP280;9205;52.032;4.314;2024-03-02T04:38:48;99755.38;;;8.02
18161;BMP280;9205;52.032;4.314;2024-03-02T04:41:16;99761.47;;;7.96
18161;BMP280;9205;52.032;4.314;2024-03-02T04:43:44;99756.53;;;7.92
18161;BMP280;9205;52.032;4.314;2024-03-02T04:46:11;99759.09;;;7.90
18161;BMP280;9205;52.032;4.314;2024-03-02T04:48:38;99769.97;;;7.94
18161;BMP280;9205;52.032;4.314;2024-03-02T04:51:05;99773.38;;;7.91
18161;BMP280;9205;52.032;4.314;2024-03-02T04:53:33;99771.47;;;7.99
18161;BMP280;9205;52.032;4.314;2024-03-02T04:56:00;99773.03;;;8.05
18161;BMP280;9205;52.032;4.314;2024-03-02T04:58:46;99772.94;;;8.08
18161;BMP280;9205;52.032;4.314;2024-03-02T05:01:13;99773.75;;;8.08
18161;BMP280;9205;52.032;4.314;2024-03-02T05:03:42;99777.84;;;8.14
18161;BMP280;9205;52.032;4.314;2024-03-02T05:06:09;99768.44;;;8.19
18161;BMP280;9205;52.032;4.314;2024-03-02T05:08:37;99782.75;;;8.20
18161;BMP280;9205;52.032;4.314;2024-03-02T05:11:04;99780.13;;;8.23
18161;BMP280;9205;52.032;4.314;2024-03-02T05:13:46;99780.03;;;8.26
18161;BMP280;9205;52.032;4.314;2024-03-02T05:16:14;99784.28;;;8.25
18161;BMP280;9205;52.032;4.314;2024-03-02T05:18:41;99787.69;;;8.24
18161;BMP280;9205;52.032;4.314;2024-03-02T05:21:08;99778.25;;;8.29
18161;BMP280;9205;52.032;4.314;2024-03-02T05:23:35;99784.94;;;8.32
18161;BMP280;9205;52.032;4.314;2024-03-02T05:26:03;99798.47;;;8.31
18161;BMP280;9205;52.032;4.314;2024-03-02T05:28:30;99788.41;;;8.28
18161;BMP280;9205;52.032;4.314;2024-03-02T05:30:59;99795.94;;;8.31
18161;BMP280;9205;52.032;4.314;2024-03-02T05:33:26;99797.66;;;8.29
18161;BMP280;9205;52.032;4.314;2024-03-02T05:35:54;99796.94;;;8.25
18161;BMP280;9205;52.032;4.314;2024-03-02T05:38:21;99800.28;;;8.26
18161;BMP280;9205;52.032;4.314;2024-03-02T05:40:49;99797.75;;;8.26
18161;BMP280;9205;52.032;4.314;2024-03-02T05:43:16;99800.28;;;8.26
18161;BMP280;9205;52.032;4.314;2024-03-02T05:45:44;99796.25;;;8.20
18161;BMP280;9205;52.032;4.314;2024-03-02T05:48:13;99793.78;;;8.17
18161;BMP280;9205;52.032;4.314;2024-03-02T05:50:40;99795.72;;;8.08
18161;BMP280;9205;52.032;4.314;2024-03-02T05:53:07;99798.31;;;8.05
18161;BMP280;9205;52.032;4.314;2024-03-02T05:55:34;99793.94;;;8.10
18161;BMP280;9205;52.032;4.314;2024-03-02T05:58:02;99801.50;;;8.11
18161;BMP280;9205;52.032;4.314;2024-03-02T06:00:44;99803.19;;;8.12
18161;BMP280;9205;52.032;4.314;2024-03-02T06:03:13;99800.44;;;8.20
18161;BMP280;9205;52.032;4.314;2024-03-02T06:05:40;99797.28;;;8.12
18161;BMP280;9205;52.032;4.314;2024-03-02T06:08:08;99795.78;;;8.05
18161;BMP280;9205;52.032;4.314;2024-03-02T06:10:35;99807.50;;;8.09
18161;BMP280;9205;52.032;4.314;2024-03-02T06:13:02;99794.97;;;8.04
18161;BMP280;9205;52.032;4.314;2024-03-02T06:15:30;99802.56;;;8.03
18161;BMP280;9205;52.032;4.314;2024-03-02T06:17:57;99802.50;;;8.06
18161;BMP280;9205;52.032;4.314;2024-03-02T06:20:25;99804.06;;;8.10
18161;BMP280;9205;52.032;4.314;2024-03-02T06:22:56;99809.00;;;8.14
18161;BMP280;9205;52.032;4.314;2024-03-02T06:25:24;99810.78;;;8.11
18161;BMP280;9205;52.032;4.314;2024-03-02T06:27:51;99811.59;;;8.13
18161;BMP280;9205;52.032;4.314;2024-03-02T06:30:18;99816.72;;;8.10
18161;BMP280;9205;52.032;4.314;2024-03-02T06:32:45;99815.22;;;8.03
18161;BMP280;9205;52.032;4.314;2024-03-02T06:35:13;99826.09;;;8.06
18161;BMP280;9205;52.032;4.314;2024-03-02T06:37:41;99819.25;;;8.10
18161;BMP280;9205;52.032;4.314;2024-03-02T06:40:09;99814.34;;;8.05
18161;BMP280;9205;52.032;4.314;2024-03-02T06:42:37;99831.03;;;8.11
18161;BMP280;9205;52.032;4.314;2024-03-02T06:45:05;99813.31;;;8.11
18161;BMP280;9205;52.032;4.314;2024-03-02T06:47:33;99821.78;;;8.10
18161;BMP280;9205;52.032;4.314;2024-03-02T06:50:00;99822.56;;;8.12
18161;BMP280;9205;52.032;4.314;2024-03-02T06:52:27;99827.78;;;8.06
18161;BMP280;9205;52.032;4.314;2024-03-02T06:54:56;99828.53;;;8.09
18161;BMP280;9205;52.032;4.314;2024-03-02T06:57:23;99849.75;;;8.04
18161;BMP280;9205;52.032;4.314;2024-03-02T06:59:51;99848.09;;;8.04
18161;BMP280;9205;52.032;4.314;2024-03-02T07:02:23;99846.44;;;8.02
18161;BMP280;9205;52.032;4.314;2024-03-02T07:04:51;99842.28;;;8.01
18161;BMP280;9205;52.032;4.314;2024-03-02T07:07:18;99856.56;;;8.02
18161;BMP280;9205;52.032;4.314;2024-03-02T07:09:46;99860.72;;;8.04
18161;BMP280;9205;52.032;4.314;2024-03-02T07:12:15;99861.53;;;8.05
18161;BMP280;9205;52.032;4.314;2024-03-02T07:14:42;99861.47;;;8.08
18161;BMP280;9205;52.032;4.314;2024-03-02T07:17:42;99859.97;;;8.01
18161;BMP280;9205;52.032;4.314;2024-03-02T07:20:11;99859.06;;;8.02
18161;BMP280;9205;52.032;4.314;2024-03-02T07:22:38;99863.19;;;8.06
18161;BMP280;9205;52.032;4.314;2024-03-02T07:25:06;99863.94;;;8.09
18161;BMP280;9205;52.032;4.314;2024-03-02T07:27:35;99863.19;;;8.06
18161;BMP280;9205;52.032;4.314;2024-03-02T07:30:03;99867.50;;;8.02
18161;BMP280;9205;52.032;4.314;2024-03-02T07:32:30;99869.19;;;8.02
18161;BMP280;9205;52.032;4.314;2024-03-02T07:34:58;99866.59;;;8.05
18161;BMP280;9205;52.032;4.314;2024-03-02T07:37:27;99866.66;;;8.02
18161;BMP280;9205;52.032;4.314;2024-03-02T07:39:54;99881.84;;;8.02
18161;BMP280;9205;52.032;4.314;2024-03-02T07:42:22;99875.06;;;8.04
18161;BMP280;9205;52.032;4.314;2024-03-02T07:44:50;99879.19;;;8.06
18161;BMP280;9205;52.032;4.314;2024-03-02T07:47:18;99882.63;;;8.04
18161;BMP280;9205;52.032;4.314;2024-03-02T07:49:45;99884.19;;;8.09
18161;BMP280;9205;52.032;4.314;2024-03-02T07:52:13;99887.63;;;8.07
18161;BMP280;9205;52.032;4.314;2024-03-02T07:54:40;99886.91;;;8.02
18161;BMP280;9205;52.032;4.314;2024-03-02T07:57:07;99880.91;;;8.06
18161;BMP280;9205;52.032;4.314;2024-03-02T07:59:35;99875.06;;;8.04
18161;BMP280;9205;52.032;4.314;2024-03-02T08:02:04;99875.97;;;8.01
18161;BMP280;9205;52.032;4.314;2024-03-02T08:04:31;99876.03;;;8.00
18161;BMP280;9205;52.032;4.314;2024-03-02T08:06:58;99869.25;;;8.00
18161;BMP280;9205;52.032;4.314;2024-03-02T08:09:25;99869.19;;;8.02
18161;BMP280;9205;52.032;4.314;2024-03-02T08:11:53;99881.72;;;8.06
18161;BMP280;9205;52.032;4.314;2024-03-02T08:14:20;99876.56;;;8.11
18161;BMP280;9205;52.032;4.314;2024-03-02T08:16:47;99896.88;;;8.08
18161;BMP280;9205;52.032;4.314;2024-03-02T08:19:16;99894.47;;;8.03
18161;BMP280;9205;52.032;4.314;2024-03-02T08:21:44;99886.66;;;8.11
18161;BMP280;9205;52.032;4.314;2024-03-02T08:24:11;99885.66;;;8.19
18161;BMP280;9205;52.032;4.314;2024-03-02T08:26:38;99891.53;;;8.20
18161;BMP280;9205;52.032;4.314;2024-03-02T08:29:05;99883.88;;;8.21
18161;BMP280;9205;52.032;4.314;2024-03-02T08:31:33;99879.59;;;8.25
18161;BMP280;9205;52.032;4.314;2024-03-02T08:34:00;99879.44;;;8.31
18161;BMP280;9205;52.032;4.314;2024-03-02T08:36:29;99882.59;;;8.39
18161;BMP280;9205;52.032;4.314;2024-03-02T08:38:56;99883.28;;;8.44
18161;BMP280;9205;52.032;4.314;2024-03-02T08:41:24;99885.63;;;8.50
18161;BMP280;9205;52.032;4.314;2024-03-02T08:43:51;99883.72;;;8.57
18161;BMP280;9205;52.032;4.314;2024-03-02T08:46:18;99875.94;;;8.65
18161;BMP280;9205;52.032;4.314;2024-03-02T08:48:45;99879.28;;;8.65
18161;BMP280;9205;52.032;4.314;2024-03-02T08:51:13;99879.38;;;8.62
18161;BMP280;9205;52.032;4.314;2024-03-02T08:53:41;99873.34;;;8.66
18161;BMP280;9205;52.032;4.314;2024-03-02T08:56:09;99868.97;;;8.71
18161;BMP280;9205;52.032;4.314;2024-03-02T08:58:37;99871.22;;;8.80
18161;BMP280;9205;52.032;4.314;2024-03-02T09:01:04;99878.50;;;8.91
18161;BMP280;9205;52.032;4.314;2024-03-02T09:03:33;99884.31;;;8.94
18161;BMP280;9205;52.032;4.314;2024-03-02T09:06:00;99885.09;;;8.98
18161;BMP280;9205;52.032;4.314;2024-03-02T09:08:28;99883.03;;;9.09
18161;BMP280;9205;52.032;4.314;2024-03-02T09:10:56;99878.63;;;9.15
18161;BMP280;9205;52.032;4.314;2024-03-02T09:13:24;99885.22;;;9.21
18161;BMP280;9205;52.032;4.314;2024-03-02T09:15:51;99891.78;;;9.26
18161;BMP280;9205;52.032;4.314;2024-03-02T09:18:18;99886.63;;;9.29
18161;BMP280;9205;52.032;4.314;2024-03-02T09:20:46;99895.06;;;9.30
18161;BMP280;9205;52.032;4.314;2024-03-02T09:23:14;99901.03;;;9.29
18161;BMP280;9205;52.032;4.314;2024-03-02T09:25:41;99895.91;;;9.30
18161;BMP280;9205;52.032;4.314;2024-03-02T09:28:10;99897.16;;;9.43
18161;BMP280;9205;52.032;4.314;2024-03-02T09:30:38;99890.34;;;9.45
18161;BMP280;9205;52.032;4.314;2024-03-02T09:33:05;99901.16;;;9.50
18161;BMP280;9205;52.032;4.314;2024-03-02T09:35:32;99901.75;;;9.58
18161;BMP280;9205;52.032;4.314;2024-03-02T09:37:59;99899.34;;;9.55
18161;BMP280;9205;52.032;4.314;2024-03-02T09:40:27;99898.06;;;9.68
18161;BMP280;9205;52.032;4.314;2024-03-02T09:42:54;99898.72;;;9.74
18161;BMP280;9205;52.032;4.314;2024-03-02T09:45:25;99904.50;;;9.78
18161;BMP280;9205;52.032;4.314;2024-03-02T09:47:52;99908.66;;;9.80
18161;BMP280;9205;52.032;4.314;2024-03-02T09:50:20;99908.19;;;9.94
18161;BMP280;9205;52.032;4.314;2024-03-02T09:52:49;99906.38;;;9.99
18161;BMP280;9205;52.032;4.314;2024-03-02T09:55:17;99911.44;;;9.99
18161;BMP280;9205;52.032;4.314;2024-03-02T09:57:45;99911.50;;;9.96
18161;BMP280;9205;52.032;4.314;2024-03-02T10:00:15;99918.91;;;10.03
18161;BMP280;9205;52.032;4.314;2024-03-02T10:02:44;99913.97;;;9.99
18161;BMP280;9205;52.032;4.314;2024-03-02T10:05:24;99909.56;;;10.04
18161;BMP280;9205;52.032;4.314;2024-03-02T10:07:59;99910.44;;;10.03
18161;BMP280;9205;52.032;4.314;2024-03-02T10:10:36;99909.31;;;10.11
18161;BMP280;9205;52.032;4.314;2024-03-02T10:13:07;99893.31;;;10.09
18161;BMP280;9205;52.032;4.314;2024-03-02T10:15:36;99904.09;;;10.15
18161;BMP280;9205;52.032;4.314;2024-03-02T10:18:08;99903.88;;;10.21
18161;BMP280;9205;52.032;4.314;2024-03-02T10:20:36;99882.63;;;10.24
18161;BMP280;9205;52.032;4.314;2024-03-02T10:23:12;99892.47;;;10.33
18161;BMP280;9205;52.032;4.314;2024-03-02T10:25:41;99890.56;;;10.39
18161;BMP280;9205;52.032;4.314;2024-03-02T10:28:08;99877.88;;;10.39
18161;BMP280;9205;52.032;4.314;2024-03-02T10:30:36;99896.91;;;10.51
18161;BMP280;9205;52.032;4.314;2024-03-02T10:33:05;99883.38;;;10.50
18161;BMP280;9205;52.032;4.314;2024-03-02T10:35:33;99884.78;;;10.59
18161;BMP280;9205;52.032;4.314;2024-03-02T10:38:04;99886.97;;;10.68
18161;BMP280;9205;52.032;4.314;2024-03-02T10:40:32;99879.13;;;10.74
18161;BMP280;9205;52.032;4.314;2024-03-02T10:43:01;99881.38;;;10.81
18161;BMP280;9205;52.032;4.314;2024-03-02T10:45:30;99871.84;;;10.88
18161;BMP280;9205;52.032;4.314;2024-03-02T10:47:57;99878.28;;;10.96
18161;BMP280;9205;52.032;4.314;2024-03-02T10:50:26;99862.69;;;11.05
18161;BMP280;9205;52.032;4.314;2024-03-02T10:52:53;99860.75;;;11.11
18161;BMP280;9205;52.032;4.314;2024-03-02T10:55:21;99861.53;;;11.13
18161;BMP280;9205;52.032;4.314;2024-03-02T10:57:51;99862.97;;;11.19
18161;BMP280;9205;52.032;4.314;2024-03-02T11:00:20;99863.09;;;11.16
18161;BMP280;9205;52.032;4.314;2024-03-02T11:02:56;99869.34;;;11.29
18161;BMP280;9205;52.032;4.314;2024-03-02T11:05:33;99869.00;;;11.38
18161;BMP280;9205;52.032;4.314;2024-03-02T11:08:06;99868.91;;;11.41
18161;BMP280;9205;52.032;4.314;2024-03-02T11:10:36;99863.66;;;11.44
18161;BMP280;9205;52.032;4.314;2024-03-02T11:13:09;99873.84;;;11.44
18161;BMP280;9205;52.032;4.314;2024-03-02T11:15:40;99874.53;;;11.47
18161;BMP280;9205;52.032;4.314;2024-03-02T11:18:11;99873.78;;;11.45
18161;BMP280;9205;52.032;4.314;2024-03-02T11:20:42;99883.75;;;11.50
18161;BMP280;9205;52.032;4.314;2024-03-02T11:23:09;99870.78;;;11.36
18161;BMP280;9205;52.032;4.314;2024-03-02T11:25:37;99871.44;;;11.41
18161;BMP280;9205;52.032;4.314;2024-03-02T11:28:06;99870.22;;;11.49
18161;BMP280;9205;52.032;4.314;2024-03-02T11:30:51;99876.09;;;11.51
18161;BMP280;9205;52.032;4.314;2024-03-02T11:33:26;99876.28;;;11.47
18161;BMP280;9205;52.032;4.314;2024-03-02T11:35:57;99855.78;;;11.50
18161;BMP280;9205;52.032;4.314;2024-03-02T11:38:31;99871.75;;;11.55
18161;BMP280;9205;52.032;4.314;2024-03-02T11:41:01;99863.22;;;11.56
18161;BMP280;9205;52.032;4.314;2024-03-02T11:43:29;99852.13;;;11.57
18161;BMP280;9205;52.032;4.314;2024-03-02T11:46:00;99856.34;;;11.58
18161;BMP280;9205;52.032;4.314;2024-03-02T11:48:30;99867.81;;;11.68
18161;BMP280;9205;52.032;4.314;2024-03-02T11:51:00;99864.13;;;11.74
18161;BMP280;9205;52.032;4.314;2024-03-02T11:53:28;99869.91;;;11.78
18161;BMP280;9205;52.032;4.314;2024-03-02T11:55:58;99850.44;;;11.77
18161;BMP280;9205;52.032;4.314;2024-03-02T11:58:27;99844.66;;;11.73
18161;BMP280;9205;52.032;4.314;2024-03-02T12:00:55;99842.81;;;11.77
18161;BMP280;9205;52.032;4.314;2024-03-02T12:03:25;99836.06;;;11.76
18161;BMP280;9205;52.032;4.314;2024-03-02T12:05:53;99834.81;;;11.86
18161;BMP280;9205;52.032;4.314;2024-03-02T12:08:23;99835.47;;;11.91
18161;BMP280;9205;52.032;4.314;2024-03-02T12:10:58;99831.06;;;11.94
18161;BMP280;9205;52.032;4.314;2024-03-02T12:13:26;99817.19;;;12.01
18161;BMP280;9205;52.032;4.314;2024-03-02T12:15:55;99802.44;;;12.08
18161;BMP280;9205;52.032;4.314;2024-03-02T12:18:23;99804.53;;;12.18
18161;BMP280;9205;52.032;4.314;2024-03-02T12:20:50;99807.72;;;12.23
18161;BMP280;9205;52.032;4.314;2024-03-02T12:23:24;99798.91;;;12.30
18161;BMP280;9205;52.032;4.314;2024-03-02T12:25:51;99799.25;;;12.41
18161;BMP280;9205;52.032;4.314;2024-03-02T12:28:19;99809.91;;;12.49
18161;BMP280;9205;52.032;4.314;2024-03-02T12:30:46;99799.19;;;12.43
18161;BMP280;9205;52.032;4.314;2024-03-02T12:33:14;99791.75;;;12.38
18161;BMP280;9205;52.032;4.314;2024-03-02T12:35:41;99802.56;;;12.43
18161;BMP280;9205;52.032;4.314;2024-03-02T12:38:10;99793.41;;;12.39
18161;BMP280;9205;52.032;4.314;2024-03-02T12:40:39;99796.00;;;12.38
18161;BMP280;9205;52.032;4.314;2024-03-02T12:43:06;99784.03;;;12.40
18161;BMP280;9205;52.032;4.314;2024-03-02T12:45:34;99817.44;;;12.52
18161;BMP280;9205;52.032;4.314;2024-03-02T12:48:01;99793.97;;;12.64
18161;BMP280;9205;52.032;4.314;2024-03-02T12:50:30;99792.31;;;12.63
18161;BMP280;9205;52.032;4.314;2024-03-02T12:52:57;99791.34;;;12.65
18161;BMP280;9205;52.032;4.314;2024-03-02T12:55:25;99790.66;;;12.62
18161;BMP280;9205;52.032;4.314;2024-03-02T12:57:55;99786.16;;;12.67
18161;BMP280;9205;52.032;4.314;2024-03-02T13:00:24;99767.91;;;12.76
18161;BMP280;9205;52.032;4.314;2024-03-02T13:02:52;99764.94;;;12.85
18161;BMP280;9205;52.032;4.314;2024-03-02T13:05:19;99774.00;;;12.73
18161;BMP280;9205;52.032;4.314;2024-03-02T13:07:47;99772.19;;;12.75
18161;BMP280;9205;52.032;4.314;2024-03-02T13:10:15;99781.41;;;12.78
18161;BMP280;9205;52.032;4.314;2024-03-02T13:12:42;99782.72;;;12.86
18161;BMP280;9205;52.032;4.314;2024-03-02T13:15:11;99781.00;;;12.87
18161;BMP280;9205;52.032;4.314;2024-03-02T13:17:39;99775.06;;;12.86
18161;BMP280;9205;52.032;4.314;2024-03-02T13:20:07;99772.41;;;12.89
18161;BMP280;9205;52.032;4.314;2024-03-02T13:22:36;99764.38;;;12.97
18161;BMP280;9205;52.032;4.314;2024-03-02T13:25:04;99755.09;;;12.96
18161;BMP280;9205;52.032;4.314;2024-03-02T13:27:34;99757.59;;;12.97
18161;BMP280;9205;52.032;4.314;2024-03-02T13:30:02;99756.22;;;12.90
18161;BMP280;9205;52.032;4.314;2024-03-02T13:32:33;99759.66;;;12.89
18161;BMP280;9205;52.032;4.314;2024-03-02T13:35:00;99753.00;;;12.85
18161;BMP280;9205;52.032;4.314;2024-03-02T13:37:28;99750.69;;;12.81
18161;BMP280;9205;52.032;4.314;2024-03-02T13:39:56;99748.00;;;12.84
18161;BMP280;9205;52.032;4.314;2024-03-02T13:42:23;99743.25;;;12.95
18161;BMP280;9205;52.032;4.314;2024-03-02T13:44:51;99737.56;;;13.07
18161;BMP280;9205;52.032;4.314;2024-03-02T13:47:18;99736.66;;;13.08
18161;BMP280;9205;52.032;4.314;2024-03-02T13:49:48;99726.31;;;13.11
18161;BMP280;9205;52.032;4.314;2024-03-02T13:52:16;99717.53;;;13.16
18161;BMP280;9205;52.032;4.314;2024-03-02T13:54:44;99721.38;;;13.25
18161;BMP280;9205;52.032;4.314;2024-03-02T13:57:12;99705.69;;;13.32
18161;BMP280;9205;52.032;4.314;2024-03-02T13:59:42;99704.44;;;13.40
18161;BMP280;9205;52.032;4.314;2024-03-02T14:02:09;99708.91;;;13.35
18161;BMP280;9205;52.032;4.314;2024-03-02T14:04:38;99713.34;;;13.32
18161;BMP280;9205;52.032;4.314;2024-03-02T14:07:07;99706.59;;;13.31
18161;BMP280;9205;52.032;4.314;2024-03-02T14:09:36;99695.88;;;13.25
18161;BMP280;9205;52.032;4.314;2024-03-02T14:12:05;99693.16;;;13.27
18161;BMP280;9205;52.032;4.314;2024-03-02T14:14:33;99697.53;;;13.26
18161;BMP280;9205;52.032;4.314;2024-03-02T14:17:00;99692.72;;;13.20
18161;BMP280;9205;52.032;4.314;2024-03-02T14:19:30;99704.25;;;13.27
18161;BMP280;9205;52.032;4.314;2024-03-02T14:21:58;99716.34;;;13.23
18161;BMP280;9205;52.032;4.314;2024-03-02T14:24:27;99715.66;;;13.20
18161;BMP280;9205;52.032;4.314;2024-03-02T14:26:55;99718.97;;;13.22
18161;BMP280;9205;52.032;4.314;2024-03-02T14:29:23;99715.66;;;13.20
18161;BMP280;9205;52.032;4.314;2024-03-02T14:31:50;99700.97;;;13.25
18161;BMP280;9205;52.032;4.314;2024-03-02T14:34:18;99714.69;;;13.22
18161;BMP280;9205;52.032;4.314;2024-03-02T14:36:45;99718.38;;;13.17
18161;BMP280;9205;52.032;4.314;2024-03-02T14:39:13;99705.19;;;13.09